createdAt,value
2022-09-25T10:50:38.725Z,2.35
2022-09-25T10:53:30.042Z,3.40
2022-09-25T10:56:35.641Z,4.72
2022-09-25T10:59:23.472Z,4.55
2022-09-25T11:02:22.258Z,2.92
2022-09-25T11:05:16.514Z,2.67
2022-09-25T11:08:06.143Z,3.47
2022-09-25T11:10:57.129Z,2.50
2022-09-25T11:13:46.644Z,3.08
2022-09-25T11:16:51.016Z,2.70
2022-09-25T11:19:38.875Z,2.50
2022-09-25T11:22:36.203Z,2.40
2022-09-25T11:25:53.050Z,8.05
2022-09-25T11:28:54.453Z,5.65
2022-09-25T11:31:56.331Z,4.07
2022-09-25T11:34:48.430Z,2.20
2022-09-25T11:37:40.246Z,2.30
2022-09-25T11:40:53.386Z,2.20
2022-09-25T11:44:06.211Z,2.50
2022-09-25T11:47:01.482Z,3.10
2022-09-25T11:49:51.477Z,2.30
2022-09-25T11:52:41.745Z,2.10
2022-09-25T11:55:53.086Z,3.70
2022-09-25T11:58:55.237Z,2.65
2022-09-25T12:02:23.057Z,2.42
2022-09-25T12:05:37.973Z,2.47
2022-09-25T12:08:47.621Z,2.40
2022-09-25T12:11:57.007Z,2.83
2022-09-25T12:14:52.185Z,3.33
2022-09-25T12:18:14.218Z,36.47
2022-09-25T12:21:06.032Z,17.73
2022-09-25T12:24:15.160Z,3.10
2022-09-25T12:27:50.663Z,3.30
2022-09-25T12:30:50.861Z,3.47
2022-09-25T12:33:58.384Z,4.32
2022-09-25T12:36:49.179Z,45.45
2022-09-25T12:39:41.306Z,52.42
2022-09-25T12:42:43.463Z,5.50
2022-09-25T12:45:38.378Z,4.00
2022-09-25T12:48:29.139Z,3.50
2022-09-25T12:51:35.000Z,3.28
2022-09-25T12:54:35.293Z,3.17
2022-09-25T12:57:37.201Z,3.47
2022-09-25T13:00:25.726Z,3.30
2022-09-25T13:03:17.831Z,3.17
2022-09-25T13:06:28.974Z,5.90
2022-09-25T13:09:41.389Z,5.22
2022-09-25T13:12:32.609Z,3.87
2022-09-25T13:15:25.383Z,4.77
2022-09-25T13:18:18.126Z,5.05
2022-09-25T13:21:24.102Z,4.50
2022-09-25T13:24:14.444Z,3.90
2022-09-25T13:27:04.755Z,5.03
2022-09-25T13:29:54.818Z,5.65
2022-09-25T13:32:48.321Z,6.30
2022-09-25T13:35:36.267Z,8.57
2022-09-25T13:38:41.222Z,8.23
2022-09-25T13:41:30.015Z,8.27
2022-09-25T13:44:41.243Z,17.98
2022-09-25T13:47:27.736Z,53.72
2022-09-25T13:50:26.616Z,69.28
2022-09-25T13:53:22.131Z,65.32
2022-09-25T13:56:14.211Z,33.22
2022-09-25T13:59:00.440Z,24.23
2022-09-25T14:01:59.099Z,22.02
2022-09-25T14:04:48.278Z,17.37
2022-09-25T14:07:34.917Z,12.43
2022-09-25T14:10:22.205Z,8.90
2022-09-25T14:13:13.081Z,7.60
2022-09-25T14:16:02.855Z,9.85
2022-09-25T14:18:54.240Z,12.20
2022-09-25T14:21:43.908Z,11.75
2022-09-25T14:24:30.812Z,9.07
2022-09-25T14:27:22.960Z,10.02
2022-09-25T14:30:13.986Z,8.98
2022-09-25T14:33:10.391Z,7.80
2022-09-25T14:36:35.220Z,6.35
2022-09-25T14:39:28.930Z,6.40
2022-09-25T14:42:24.198Z,5.60
2022-09-25T14:45:35.357Z,6.25
2022-09-25T14:48:26.287Z,7.10
2022-09-25T14:51:35.393Z,7.60
2022-09-25T14:54:24.279Z,7.10
2022-09-25T14:57:12.010Z,8.00
2022-09-25T15:00:02.030Z,7.82
2022-09-25T15:02:49.676Z,8.27
2022-09-25T15:05:37.650Z,8.45
2022-09-25T15:08:34.940Z,8.73
2022-09-25T15:11:22.002Z,9.80
2022-09-25T15:14:16.575Z,9.93
2022-09-25T15:17:22.110Z,10.82
2022-09-25T15:20:11.989Z,10.70
2022-09-25T15:23:13.473Z,11.27
2022-09-25T15:25:59.620Z,11.57
2022-09-25T15:28:46.254Z,11.55
2022-09-25T15:31:37.582Z,9.88
2022-09-25T15:34:27.552Z,10.82
2022-09-25T15:37:18.847Z,12.10
2022-09-25T15:40:17.183Z,11.23
2022-09-25T15:43:03.814Z,10.23
2022-09-25T15:46:07.581Z,12.20
2022-09-25T15:48:57.566Z,12.35
2022-09-25T15:52:04.635Z,12.32
2022-09-25T15:54:51.257Z,14.80
2022-09-25T15:57:37.220Z,15.23
2022-09-25T16:00:44.316Z,17.87
2022-09-25T16:03:49.781Z,21.23
2022-09-25T16:12:22.709Z,28.38
